Time;durP1;ratioP1;P1;durP2;ratioP2;P2;SDS_P1;SDS_P2;PMS_P1;PMS_P2;Temp;Humidity;BMP_temperature;BMP_pressure;BME280_temperature;BME280_humidity;BME280_pressure;Samples;Min_cycle;Max_cycle;Signal;HPM_P1;HPM_P2
2022/01/29 00:00:40;;;;;;;8.47;2.70;;;;;;;;;;769616;180;920396;-65
2022/01/29 00:03:05;;;;;;;5.53;2.20;;;;;;;;;;764065;181;919071;-65
2022/01/29 00:05:31;;;;;;;4.60;2.43;;;;;;;;;;776003;180;918448;-65
2022/01/29 00:07:57;;;;;;;8.63;3.20;;;;;;;;;;771307;178;920174;-65
2022/01/29 00:10:23;;;;;;;5.93;2.67;;;;;;;;;;775094;178;916908;-66
2022/01/29 00:12:49;;;;;;;5.07;2.60;;;;;;;;;;778227;179;916123;-65
2022/01/29 00:15:15;;;;;;;4.87;2.40;;;;;;;;;;769916;180;1019260;-66
2022/01/29 00:17:41;;;;;;;6.70;2.80;;;;;;;;;;773964;180;916184;-65
2022/01/29 00:20:07;;;;;;;7.50;2.73;;;;;;;;;;776198;180;918519;-66
2022/01/29 00:22:33;;;;;;;4.10;2.17;;;;;;;;;;774715;179;918135;-66
2022/01/29 00:24:59;;;;;;;5.60;2.37;;;;;;;;;;773409;178;918953;-65
2022/01/29 00:27:27;;;;;;;6.80;2.90;;;;;;;;;;773547;179;917880;-66
2022/01/29 00:29:50;;;;;;;5.40;2.00;;;;;;;;;;777226;180;919672;-66
2022/01/29 00:32:16;;;;;;;11.43;3.13;;;;;;;;;;769081;181;919309;-66
2022/01/29 00:34:42;;;;;;;10.77;3.97;;;;;;;;;;767841;180;922033;-67
2022/01/29 00:37:08;;;;;;;5.53;2.13;;;;;;;;;;779112;180;919518;-66
2022/01/29 00:39:34;;;;;;;6.07;2.08;;;;;;;;;;767765;181;919134;-66
2022/01/29 00:42:00;;;;;;;6.43;2.73;;;;;;;;;;774011;178;918871;-67
2022/01/29 00:44:26;;;;;;;4.83;2.60;;;;;;;;;;782036;179;917907;-66
2022/01/29 00:46:51;;;;;;;7.97;3.08;;;;;;;;;;772570;180;918310;-66
2022/01/29 00:49:17;;;;;;;6.80;2.40;;;;;;;;;;774602;180;919394;-66
2022/01/29 00:51:43;;;;;;;5.30;2.37;;;;;;;;;;776823;181;918677;-66
2022/01/29 00:54:09;;;;;;;6.40;3.17;;;;;;;;;;771810;180;919503;-67
2022/01/29 00:56:35;;;;;;;7.43;2.97;;;;;;;;;;766257;177;918182;-67
2022/01/29 00:59:01;;;;;;;7.80;3.40;;;;;;;;;;771511;177;918734;-66
2022/01/29 01:01:26;;;;;;;9.73;3.25;;;;;;;;;;781053;178;918799;-67
2022/01/29 01:03:52;;;;;;;9.57;4.23;;;;;;;;;;774836;180;919225;-67
2022/01/29 01:06:18;;;;;;;7.77;3.00;;;;;;;;;;773846;181;919394;-67
2022/01/29 01:08:44;;;;;;;8.02;3.00;;;;;;;;;;778508;179;919548;-67
2022/01/29 01:11:10;;;;;;;7.73;2.97;;;;;;;;;;772913;180;918556;-67
2022/01/29 01:13:36;;;;;;;5.17;2.50;;;;;;;;;;772474;180;918353;-67
2022/01/29 01:16:01;;;;;;;8.73;2.93;;;;;;;;;;775479;180;918840;-67
2022/01/29 01:18:27;;;;;;;7.03;2.93;;;;;;;;;;772158;181;919253;-67
2022/01/29 01:20:53;;;;;;;5.70;3.05;;;;;;;;;;769936;181;919818;-68
2022/01/29 01:23:19;;;;;;;7.93;3.93;;;;;;;;;;772351;181;919046;-68
2022/01/29 01:25:45;;;;;;;7.17;3.60;;;;;;;;;;776327;178;919050;-67
2022/01/29 01:28:11;;;;;;;6.30;3.10;;;;;;;;;;773038;180;918973;-67
2022/01/29 01:30:36;;;;;;;10.47;4.10;;;;;;;;;;771058;180;918877;-68
2022/01/29 01:33:02;;;;;;;7.10;3.20;;;;;;;;;;778336;180;920929;-68
2022/01/29 01:35:34;;;;;;;13.20;4.00;;;;;;;;;;772486;181;918915;-69
2022/01/29 01:37:59;;;;;;;6.17;3.77;;;;;;;;;;762669;182;918897;-68
2022/01/29 01:40:21;;;;;;;9.57;3.43;;;;;;;;;;760783;181;918847;-67
2022/01/29 01:42:46;;;;;;;10.57;5.00;;;;;;;;;;773326;180;918966;-67
2022/01/29 01:45:12;;;;;;;6.80;3.60;;;;;;;;;;773995;179;920988;-67
2022/01/29 01:47:37;;;;;;;10.93;3.67;;;;;;;;;;775352;178;919589;-67
2022/01/29 01:50:03;;;;;;;11.73;3.90;;;;;;;;;;784265;177;914082;-68
2022/01/29 01:52:29;;;;;;;10.57;3.90;;;;;;;;;;770575;180;1079991;-68
2022/01/29 01:54:55;;;;;;;7.03;3.07;;;;;;;;;;775556;180;919231;-67
2022/01/29 01:57:21;;;;;;;9.87;4.40;;;;;;;;;;779301;180;919130;-67
2022/01/29 01:59:47;;;;;;;10.10;4.27;;;;;;;;;;771049;177;921894;-67
2022/01/29 02:02:13;;;;;;;8.20;3.70;;;;;;;;;;771202;180;919512;-68
2022/01/29 02:04:38;;;;;;;8.67;3.57;;;;;;;;;;779905;180;1022478;-68
2022/01/29 02:07:04;;;;;;;5.97;3.90;;;;;;;;;;776756;177;918637;-67
2022/01/29 02:09:31;;;;;;;7.10;3.80;;;;;;;;;;773982;180;918380;-68
2022/01/29 02:11:57;;;;;;;13.00;4.28;;;;;;;;;;779160;180;918955;-67
2022/01/29 02:14:27;;;;;;;11.17;5.30;;;;;;;;;;772035;181;920108;-68
2022/01/29 02:16:49;;;;;;;5.97;2.80;;;;;;;;;;771976;177;919045;-68
2022/01/29 02:19:15;;;;;;;5.97;3.03;;;;;;;;;;767338;181;919669;-68
2022/01/29 02:21:41;;;;;;;10.03;4.10;;;;;;;;;;777283;180;876094;-68
2022/01/29 02:24:07;;;;;;;6.40;3.60;;;;;;;;;;777736;180;1021656;-68
2022/01/29 02:26:33;;;;;;;6.93;3.60;;;;;;;;;;774286;178;918687;-67
2022/01/29 02:28:58;;;;;;;16.30;4.17;;;;;;;;;;777902;180;918546;-68
2022/01/29 02:31:24;;;;;;;12.87;4.00;;;;;;;;;;770015;180;919573;-68
2022/01/29 02:33:50;;;;;;;9.10;3.50;;;;;;;;;;772250;180;919656;-68
2022/01/29 02:36:16;;;;;;;6.80;3.23;;;;;;;;;;771567;180;918131;-69
2022/01/29 02:38:42;;;;;;;10.23;4.23;;;;;;;;;;769051;181;919757;-68
2022/01/29 02:41:08;;;;;;;13.60;6.27;;;;;;;;;;771907;180;918915;-68
2022/01/29 02:43:40;;;;;;;9.80;5.10;;;;;;;;;;770433;180;919591;-67
2022/01/29 02:46:48;;;;;;;6.87;4.00;;;;;;;;;;777648;179;916644;-68
2022/01/29 02:48:41;;;;;;;9.20;5.40;;;;;;;;;;776382;178;920185;-68
2022/01/29 02:51:07;;;;;;;5.50;3.50;;;;;;;;;;772713;180;918816;-68
2022/01/29 02:53:33;;;;;;;16.63;5.37;;;;;;;;;;769948;180;1020074;-68
2022/01/29 02:55:59;;;;;;;5.80;3.60;;;;;;;;;;776451;180;918967;-67
2022/01/29 02:58:24;;;;;;;8.13;3.60;;;;;;;;;;770289;178;919823;-68
2022/01/29 03:00:50;;;;;;;8.63;3.47;;;;;;;;;;774193;177;918794;-68
2022/01/29 03:03:16;;;;;;;10.20;4.13;;;;;;;;;;767353;181;918997;-68
2022/01/29 03:05:42;;;;;;;7.87;3.63;;;;;;;;;;772342;181;918893;-69
2022/01/29 03:08:08;;;;;;;5.80;2.67;;;;;;;;;;773354;180;918941;-68
2022/01/29 03:10:33;;;;;;;6.70;3.20;;;;;;;;;;768148;180;919335;-68
2022/01/29 03:12:59;;;;;;;14.17;4.20;;;;;;;;;;772776;180;918193;-68
2022/01/29 03:15:25;;;;;;;9.30;3.73;;;;;;;;;;772799;177;922591;-69
2022/01/29 03:17:51;;;;;;;13.53;4.00;;;;;;;;;;772006;177;919393;-68
2022/01/29 03:20:17;;;;;;;19.60;5.37;;;;;;;;;;766327;181;917647;-68
2022/01/29 03:22:43;;;;;;;12.47;6.10;;;;;;;;;;769603;180;918579;-68
2022/01/29 03:25:09;;;;;;;13.47;5.03;;;;;;;;;;772587;180;916385;-68
2022/01/29 03:27:34;;;;;;;21.87;7.20;;;;;;;;;;778877;181;918563;-68
2022/01/29 03:30:00;;;;;;;23.33;6.70;;;;;;;;;;773422;181;918652;-68
2022/01/29 03:32:26;;;;;;;20.83;7.93;;;;;;;;;;773743;180;919115;-67
2022/01/29 03:34:52;;;;;;;14.87;6.83;;;;;;;;;;776562;180;919031;-68
2022/01/29 03:37:18;;;;;;;11.53;7.47;;;;;;;;;;773715;178;919027;-68
2022/01/29 03:39:45;;;;;;;14.80;6.73;;;;;;;;;;772040;177;919096;-68
2022/01/29 03:42:11;;;;;;;24.50;7.77;;;;;;;;;;770644;178;1064783;-68
2022/01/29 03:44:35;;;;;;;25.27;8.17;;;;;;;;;;772791;181;919069;-68
2022/01/29 03:47:01;;;;;;;15.10;7.33;;;;;;;;;;773848;180;919682;-68
2022/01/29 03:49:27;;;;;;;20.40;7.77;;;;;;;;;;774334;177;920233;-68
2022/01/29 03:51:53;;;;;;;14.00;7.85;;;;;;;;;;779573;180;918530;-68
2022/01/29 03:54:19;;;;;;;15.83;7.80;;;;;;;;;;774330;178;1023116;-69
2022/01/29 03:56:45;;;;;;;16.17;8.90;;;;;;;;;;773041;179;915865;-68
2022/01/29 03:59:10;;;;;;;16.47;8.00;;;;;;;;;;775527;177;916178;-68
2022/01/29 04:01:36;;;;;;;16.60;6.50;;;;;;;;;;762564;177;916057;-67
2022/01/29 04:04:02;;;;;;;16.13;8.17;;;;;;;;;;767984;181;919073;-68
2022/01/29 04:06:30;;;;;;;20.50;8.43;;;;;;;;;;773457;180;919945;-68
2022/01/29 04:08:54;;;;;;;17.87;7.20;;;;;;;;;;777013;179;919437;-68
2022/01/29 04:11:22;;;;;;;18.43;8.37;;;;;;;;;;774609;180;918784;-68
2022/01/29 04:13:48;;;;;;;21.90;8.50;;;;;;;;;;771607;180;918684;-68
2022/01/29 04:16:11;;;;;;;14.40;6.73;;;;;;;;;;779353;177;919353;-67
2022/01/29 04:18:37;;;;;;;17.93;6.63;;;;;;;;;;772300;180;919435;-68
2022/01/29 04:21:03;;;;;;;17.90;7.50;;;;;;;;;;770155;179;918805;-68
2022/01/29 04:23:29;;;;;;;12.53;7.37;;;;;;;;;;778530;180;918069;-68
2022/01/29 04:25:55;;;;;;;22.98;7.65;;;;;;;;;;761999;180;919226;-68
2022/01/29 04:28:24;;;;;;;15.05;6.65;;;;;;;;;;764042;181;1020220;-68
2022/01/29 04:30:53;;;;;;;23.37;7.03;;;;;;;;;;772394;179;919406;-66
2022/01/29 04:33:31;;;;;;;16.50;7.43;;;;;;;;;;775267;180;918859;-68
2022/01/29 04:35:56;;;;;;;16.07;6.87;;;;;;;;;;767627;179;919448;-69
2022/01/29 04:38:22;;;;;;;14.77;6.40;;;;;;;;;;763856;181;919097;-69
2022/01/29 04:40:48;;;;;;;22.43;7.03;;;;;;;;;;772437;177;926377;-68
2022/01/29 04:43:14;;;;;;;22.73;6.97;;;;;;;;;;780350;180;917825;-68
2022/01/29 04:45:40;;;;;;;20.97;7.03;;;;;;;;;;772244;180;961503;-68
2022/01/29 04:48:07;;;;;;;17.23;6.40;;;;;;;;;;770749;180;924970;-68
2022/01/29 04:50:33;;;;;;;20.50;6.40;;;;;;;;;;774088;180;1123838;-68
2022/01/29 04:52:58;;;;;;;15.30;6.10;;;;;;;;;;763326;180;918382;-68
2022/01/29 04:55:24;;;;;;;10.00;5.30;;;;;;;;;;767033;180;1022088;-69
2022/01/29 04:57:50;;;;;;;16.07;5.90;;;;;;;;;;771110;180;919615;-68
2022/01/29 05:00:20;;;;;;;19.93;8.17;;;;;;;;;;772377;178;918402;-68
2022/01/29 05:02:43;;;;;;;17.90;6.07;;;;;;;;;;770356;180;923117;-68
2022/01/29 05:05:08;;;;;;;16.03;8.17;;;;;;;;;;770386;180;918583;-68
2022/01/29 05:07:34;;;;;;;15.27;7.03;;;;;;;;;;776756;180;919591;-68
2022/01/29 05:10:00;;;;;;;18.00;7.37;;;;;;;;;;771719;179;919984;-68
2022/01/29 05:12:32;;;;;;;18.43;7.17;;;;;;;;;;770033;180;919531;-68
2022/01/29 05:15:08;;;;;;;18.33;7.40;;;;;;;;;;777473;178;919610;-69
2022/01/29 05:26:50;;;;;;;12.93;6.00;;;;;;;;;;770166;180;921911;-68
2022/01/29 05:26:50;;;;;;;23.37;7.70;;;;;;;;;;768128;179;918969;-69
2022/01/29 05:27:16;;;;;;;13.87;6.57;;;;;;;;;;772520;180;916540;-68
2022/01/29 05:29:42;;;;;;;15.47;7.67;;;;;;;;;;772680;178;918528;-68
2022/01/29 05:32:08;;;;;;;20.93;6.87;;;;;;;;;;770373;177;916330;-68
2022/01/29 05:34:34;;;;;;;17.10;5.80;;;;;;;;;;778201;178;914860;-69
2022/01/29 05:37:02;;;;;;;13.27;7.20;;;;;;;;;;765063;177;920175;-68
2022/01/29 05:39:26;;;;;;;33.67;9.17;;;;;;;;;;763003;180;918751;-68
2022/01/29 05:41:53;;;;;;;15.73;6.90;;;;;;;;;;777011;180;919198;-68
2022/01/29 05:44:17;;;;;;;17.73;9.20;;;;;;;;;;771718;178;917839;-67
2022/01/29 05:46:43;;;;;;;20.20;8.65;;;;;;;;;;769233;180;1223636;-68
2022/01/29 05:49:09;;;;;;;13.83;6.63;;;;;;;;;;774338;177;647960;-68
2022/01/29 05:51:35;;;;;;;20.40;9.03;;;;;;;;;;771327;178;919178;-68
2022/01/29 05:54:01;;;;;;;20.33;8.27;;;;;;;;;;772660;180;918574;-68
2022/01/29 05:56:27;;;;;;;39.80;9.13;;;;;;;;;;770376;180;918986;-68
2022/01/29 05:58:52;;;;;;;28.10;10.47;;;;;;;;;;770511;180;918412;-68
2022/01/29 06:01:18;;;;;;;13.63;7.50;;;;;;;;;;763191;180;918118;-68
2022/01/29 06:03:44;;;;;;;21.60;9.30;;;;;;;;;;768301;180;1216696;-68
2022/01/29 06:06:10;;;;;;;24.67;8.50;;;;;;;;;;777595;180;919419;-68
2022/01/29 06:08:36;;;;;;;20.97;9.40;;;;;;;;;;771430;180;919011;-68
2022/01/29 06:11:02;;;;;;;25.80;10.30;;;;;;;;;;774186;178;894230;-68
2022/01/29 06:13:28;;;;;;;23.33;8.93;;;;;;;;;;777239;180;919463;-67
2022/01/29 06:15:53;;;;;;;21.40;9.57;;;;;;;;;;769204;180;918737;-67
2022/01/29 06:18:19;;;;;;;20.70;10.65;;;;;;;;;;772746;178;1021916;-68
2022/01/29 06:20:45;;;;;;;20.23;7.95;;;;;;;;;;771067;178;919186;-66
2022/01/29 06:23:12;;;;;;;15.10;7.97;;;;;;;;;;767950;180;989637;-68
2022/01/29 06:25:37;;;;;;;22.80;9.93;;;;;;;;;;767255;181;917319;-68
2022/01/29 06:28:03;;;;;;;21.83;9.52;;;;;;;;;;772818;178;925390;-68
2022/01/29 06:30:29;;;;;;;15.23;8.00;;;;;;;;;;766581;182;918356;-69
2022/01/29 06:32:55;;;;;;;24.07;8.50;;;;;;;;;;767867;178;918464;-68
2022/01/29 06:35:21;;;;;;;21.17;8.98;;;;;;;;;;773315;178;919172;-67
2022/01/29 06:37:46;;;;;;;24.53;11.70;;;;;;;;;;776341;180;919938;-68
2022/01/29 06:40:12;;;;;;;38.37;14.40;;;;;;;;;;772673;177;918865;-68
2022/01/29 06:42:38;;;;;;;32.60;16.13;;;;;;;;;;771433;179;918832;-68
2022/01/29 06:45:05;;;;;;;38.70;16.40;;;;;;;;;;780717;180;919285;-68
2022/01/29 06:47:30;;;;;;;51.17;16.37;;;;;;;;;;777340;180;917336;-67
2022/01/29 06:49:56;;;;;;;34.10;15.13;;;;;;;;;;773173;179;922468;-67
2022/01/29 06:52:22;;;;;;;32.30;13.83;;;;;;;;;;769694;178;1114272;-68
2022/01/29 06:54:48;;;;;;;32.70;13.70;;;;;;;;;;776668;180;922613;-67
2022/01/29 06:57:14;;;;;;;41.33;14.05;;;;;;;;;;771417;179;952312;-67
2022/01/29 06:59:40;;;;;;;30.30;18.20;;;;;;;;;;767501;177;919658;-68
2022/01/29 07:02:05;;;;;;;32.87;15.90;;;;;;;;;;769431;181;915201;-67
2022/01/29 07:04:31;;;;;;;43.70;15.67;;;;;;;;;;773133;177;919758;-67
2022/01/29 07:06:57;;;;;;;27.77;15.10;;;;;;;;;;771397;180;919271;-67
2022/01/29 07:09:23;;;;;;;33.70;15.75;;;;;;;;;;775921;180;919193;-67
2022/01/29 07:11:55;;;;;;;29.00;16.00;;;;;;;;;;771079;180;919868;-67
2022/01/29 07:14:17;;;;;;;31.37;14.70;;;;;;;;;;768535;180;918897;-67
2022/01/29 07:16:43;;;;;;;44.20;18.47;;;;;;;;;;766217;177;918421;-66
2022/01/29 07:19:08;;;;;;;41.23;18.63;;;;;;;;;;772723;181;919404;-67
2022/01/29 07:21:33;;;;;;;56.97;22.03;;;;;;;;;;770658;180;1021316;-66
2022/01/29 07:23:59;;;;;;;35.33;19.42;;;;;;;;;;772398;180;918893;-67
2022/01/29 07:26:25;;;;;;;38.20;19.77;;;;;;;;;;777268;180;1019756;-67
2022/01/29 07:28:51;;;;;;;48.40;18.47;;;;;;;;;;770114;180;1049847;-66
2022/01/29 07:31:16;;;;;;;38.60;17.77;;;;;;;;;;770908;177;916238;-66
2022/01/29 07:33:42;;;;;;;38.83;15.85;;;;;;;;;;775420;181;916275;-65
2022/01/29 07:36:08;;;;;;;48.73;14.47;;;;;;;;;;771358;179;923247;-66
2022/01/29 07:38:34;;;;;;;30.35;13.98;;;;;;;;;;771941;179;1021720;-66
2022/01/29 07:41:00;;;;;;;31.93;12.70;;;;;;;;;;759929;183;921980;-65
2022/01/29 07:43:26;;;;;;;33.10;13.97;;;;;;;;;;766427;180;919562;-66
2022/01/29 07:45:52;;;;;;;28.87;12.93;;;;;;;;;;773793;178;919282;-66
2022/01/29 07:48:17;;;;;;;23.67;11.80;;;;;;;;;;772632;180;919363;-65
2022/01/29 07:50:45;;;;;;;29.77;11.80;;;;;;;;;;778231;179;918559;-65
2022/01/29 07:53:09;;;;;;;28.77;11.53;;;;;;;;;;760923;181;918863;-66
2022/01/29 07:55:35;;;;;;;25.70;11.38;;;;;;;;;;775383;181;888751;-65
2022/01/29 07:58:01;;;;;;;28.00;10.53;;;;;;;;;;779993;177;908619;-65
2022/01/29 08:00:27;;;;;;;25.90;11.30;;;;;;;;;;778520;180;624852;-65
2022/01/29 08:02:53;;;;;;;30.10;11.57;;;;;;;;;;776243;178;640803;-66
2022/01/29 08:05:19;;;;;;;36.60;13.27;;;;;;;;;;779307;180;617020;-65
2022/01/29 08:07:45;;;;;;;27.47;10.30;;;;;;;;;;774381;180;625810;-65
2022/01/29 08:10:11;;;;;;;18.33;9.30;;;;;;;;;;777338;180;657304;-65
2022/01/29 08:12:36;;;;;;;34.40;11.27;;;;;;;;;;776517;177;631915;-64
2022/01/29 08:15:02;;;;;;;17.97;10.00;;;;;;;;;;776692;181;919391;-64
2022/01/29 08:17:28;;;;;;;25.47;9.07;;;;;;;;;;771659;179;1022822;-64
2022/01/29 08:19:54;;;;;;;17.10;9.02;;;;;;;;;;772264;180;993150;-64
2022/01/29 08:22:20;;;;;;;20.23;8.80;;;;;;;;;;777534;180;919669;-63
2022/01/29 08:24:46;;;;;;;21.23;8.07;;;;;;;;;;775164;181;719057;-65
2022/01/29 08:27:12;;;;;;;21.87;8.33;;;;;;;;;;773643;178;841799;-64
2022/01/29 08:29:38;;;;;;;15.90;6.47;;;;;;;;;;779320;180;625666;-64
2022/01/29 08:32:04;;;;;;;16.70;7.73;;;;;;;;;;766008;180;917531;-64
2022/01/29 08:34:30;;;;;;;17.73;6.40;;;;;;;;;;772482;180;920920;-64
2022/01/29 08:36:58;;;;;;;13.30;5.93;;;;;;;;;;774556;180;917931;-63
2022/01/29 08:39:23;;;;;;;24.87;5.97;;;;;;;;;;778725;180;919081;-65
2022/01/29 08:41:47;;;;;;;28.63;5.43;;;;;;;;;;775411;180;917927;-65
2022/01/29 08:44:13;;;;;;;14.13;7.30;;;;;;;;;;769479;180;918880;-64
2022/01/29 08:46:39;;;;;;;20.33;5.05;;;;;;;;;;779211;177;902641;-65
2022/01/29 08:49:05;;;;;;;18.27;6.47;;;;;;;;;;776471;180;919240;-65
2022/01/29 08:51:32;;;;;;;22.98;6.72;;;;;;;;;;776362;180;918236;-65
2022/01/29 08:53:56;;;;;;;20.15;7.37;;;;;;;;;;776093;179;916294;-65
2022/01/29 08:56:22;;;;;;;12.30;5.07;;;;;;;;;;768076;180;623523;-66
2022/01/29 08:58:48;;;;;;;9.20;3.73;;;;;;;;;;771304;180;617860;-66
2022/01/29 09:01:14;;;;;;;9.60;4.40;;;;;;;;;;779416;180;708187;-66
2022/01/29 09:03:40;;;;;;;15.33;5.70;;;;;;;;;;776714;177;652135;-67
2022/01/29 09:06:06;;;;;;;21.30;5.97;;;;;;;;;;777290;180;626098;-67
2022/01/29 09:08:32;;;;;;;12.23;5.27;;;;;;;;;;770738;179;919418;-66
2022/01/29 09:10:58;;;;;;;12.83;5.17;;;;;;;;;;777373;180;918341;-66
2022/01/29 09:13:24;;;;;;;14.50;5.67;;;;;;;;;;772483;178;919462;-66
2022/01/29 09:15:50;;;;;;;28.15;6.35;;;;;;;;;;758137;181;919905;-66
2022/01/29 09:18:16;;;;;;;16.90;5.77;;;;;;;;;;778687;180;918534;-66
2022/01/29 09:20:42;;;;;;;35.13;6.30;;;;;;;;;;771583;178;921476;-65
2022/01/29 09:23:08;;;;;;;29.40;7.97;;;;;;;;;;772592;178;919146;-65
2022/01/29 09:25:36;;;;;;;10.77;6.28;;;;;;;;;;780241;178;918815;-62
2022/01/29 09:28:01;;;;;;;10.70;4.93;;;;;;;;;;768512;180;918133;-65
2022/01/29 09:30:27;;;;;;;11.70;4.90;;;;;;;;;;769314;178;915843;-65
2022/01/29 09:32:52;;;;;;;15.83;5.53;;;;;;;;;;776077;178;856523;-65
2022/01/29 09:35:19;;;;;;;22.90;4.70;;;;;;;;;;778419;178;884154;-65
2022/01/29 09:37:44;;;;;;;16.17;6.30;;;;;;;;;;771229;180;919553;-64
2022/01/29 09:40:10;;;;;;;15.80;6.37;;;;;;;;;;776287;180;625323;-64
2022/01/29 09:42:36;;;;;;;16.60;5.40;;;;;;;;;;781551;180;616232;-64
2022/01/29 09:45:02;;;;;;;16.42;5.68;;;;;;;;;;777517;180;626962;-64
2022/01/29 09:47:28;;;;;;;20.10;5.60;;;;;;;;;;776411;180;616926;-64
2022/01/29 09:49:54;;;;;;;13.73;4.80;;;;;;;;;;782000;179;622834;-64
2022/01/29 09:52:19;;;;;;;24.70;4.63;;;;;;;;;;763310;180;649052;-64
2022/01/29 09:54:45;;;;;;;21.10;5.53;;;;;;;;;;773700;180;918930;-65
2022/01/29 09:57:11;;;;;;;18.83;4.97;;;;;;;;;;776667;180;634506;-63
2022/01/29 09:59:37;;;;;;;10.90;5.67;;;;;;;;;;780698;180;616929;-64
2022/01/29 10:02:03;;;;;;;19.37;4.80;;;;;;;;;;777139;180;644495;-64
2022/01/29 10:04:33;;;;;;;12.20;5.00;;;;;;;;;;775278;180;647637;-64
2022/01/29 10:07:01;;;;;;;14.33;5.93;;;;;;;;;;780890;180;624622;-63
2022/01/29 10:09:31;;;;;;;15.20;5.27;;;;;;;;;;780405;179;627087;-62
2022/01/29 10:12:03;;;;;;;14.03;5.63;;;;;;;;;;779233;180;614537;-63
2022/01/29 10:14:29;;;;;;;22.53;6.30;;;;;;;;;;777343;180;626423;-62
2022/01/29 10:16:54;;;;;;;18.13;4.63;;;;;;;;;;778640;180;918682;-62
2022/01/29 10:19:20;;;;;;;19.57;7.20;;;;;;;;;;773396;180;625363;-62
2022/01/29 10:21:46;;;;;;;26.60;7.23;;;;;;;;;;767624;181;682960;-63
2022/01/29 10:24:12;;;;;;;20.87;5.77;;;;;;;;;;774597;180;627780;-62
2022/01/29 10:26:39;;;;;;;24.57;6.70;;;;;;;;;;781772;180;627152;-64
2022/01/29 10:29:06;;;;;;;22.87;6.47;;;;;;;;;;776076;180;817221;-63
2022/01/29 10:31:40;;;;;;;14.13;3.58;;;;;;;;;;770434;180;919027;-64
2022/01/29 10:34:20;;;;;;;10.93;4.90;;;;;;;;;;781336;177;640916;-65
2022/01/29 10:36:46;;;;;;;11.43;5.93;;;;;;;;;;775815;180;917453;-63
2022/01/29 10:39:12;;;;;;;23.00;5.37;;;;;;;;;;778039;177;626699;-68
2022/01/29 10:41:38;;;;;;;12.57;5.60;;;;;;;;;;777407;177;651741;-65
2022/01/29 10:44:10;;;;;;;15.43;6.30;;;;;;;;;;776634;179;621783;-64
2022/01/29 10:46:34;;;;;;;19.77;5.60;;;;;;;;;;774376;179;633717;-65
2022/01/29 10:49:00;;;;;;;18.63;6.60;;;;;;;;;;773102;179;917524;-66
2022/01/29 10:51:26;;;;;;;13.83;5.03;;;;;;;;;;776465;177;641052;-64
2022/01/29 10:53:53;;;;;;;18.20;5.90;;;;;;;;;;776631;180;611202;-63
2022/01/29 10:56:18;;;;;;;16.00;6.30;;;;;;;;;;775276;180;920472;-64
2022/01/29 10:58:44;;;;;;;15.27;6.30;;;;;;;;;;775615;180;627020;-64
2022/01/29 11:01:13;;;;;;;20.37;7.53;;;;;;;;;;782009;180;711408;-64
2022/01/29 11:03:40;;;;;;;24.57;8.50;;;;;;;;;;776918;180;915783;-64
2022/01/29 11:06:07;;;;;;;14.50;6.40;;;;;;;;;;771873;180;915569;-64
2022/01/29 11:08:32;;;;;;;5.90;3.00;;;;;;;;;;766576;177;918796;-64
2022/01/29 11:10:58;;;;;;;13.57;6.00;;;;;;;;;;766327;181;921157;-64
2022/01/29 11:13:24;;;;;;;15.37;6.10;;;;;;;;;;776933;180;645185;-64
2022/01/29 11:15:51;;;;;;;21.00;7.70;;;;;;;;;;776019;180;624549;-64
2022/01/29 11:18:17;;;;;;;12.40;4.80;;;;;;;;;;780053;179;617157;-65
2022/01/29 11:20:42;;;;;;;24.73;6.47;;;;;;;;;;768389;177;1807983;-64
2022/01/29 11:23:08;;;;;;;27.73;7.00;;;;;;;;;;772296;180;919954;-62
2022/01/29 11:25:35;;;;;;;21.13;7.30;;;;;;;;;;774820;178;919217;-63
2022/01/29 11:28:06;;;;;;;15.70;7.47;;;;;;;;;;778356;180;919324;-64
2022/01/29 11:30:32;;;;;;;24.57;5.97;;;;;;;;;;773523;180;923977;-62
2022/01/29 11:32:59;;;;;;;6.90;3.33;;;;;;;;;;772700;180;919578;-64
2022/01/29 11:35:26;;;;;;;17.13;6.07;;;;;;;;;;777924;179;919120;-64
2022/01/29 11:37:54;;;;;;;15.63;6.17;;;;;;;;;;777070;179;869214;-63
2022/01/29 11:40:21;;;;;;;12.00;5.77;;;;;;;;;;777146;178;635876;-64
2022/01/29 11:43:06;;;;;;;9.97;5.10;;;;;;;;;;776447;180;618671;-64
2022/01/29 11:45:32;;;;;;;19.63;5.97;;;;;;;;;;774352;179;629832;-64
2022/01/29 11:47:56;;;;;;;21.50;5.97;;;;;;;;;;778276;180;919564;-64
2022/01/29 11:50:38;;;;;;;14.35;5.57;;;;;;;;;;770743;178;1021660;-66
2022/01/29 11:53:04;;;;;;;10.60;5.33;;;;;;;;;;767408;180;920397;-64
2022/01/29 11:55:35;;;;;;;15.87;5.80;;;;;;;;;;774217;177;919396;-64
2022/01/29 11:58:07;;;;;;;15.27;5.85;;;;;;;;;;770382;180;922934;-63
2022/01/29 12:00:32;;;;;;;15.07;5.17;;;;;;;;;;775371;180;919481;-63
2022/01/29 12:02:58;;;;;;;12.90;5.30;;;;;;;;;;772279;178;919287;-63
2022/01/29 12:05:29;;;;;;;23.33;6.80;;;;;;;;;;774389;180;627054;-64
2022/01/29 12:07:57;;;;;;;19.13;5.90;;;;;;;;;;776671;180;918663;-64
2022/01/29 12:10:24;;;;;;;15.00;5.10;;;;;;;;;;775581;180;1004406;-64
2022/01/29 12:12:48;;;;;;;15.10;6.90;;;;;;;;;;770618;177;915661;-64
2022/01/29 12:15:29;;;;;;;7.20;3.87;;;;;;;;;;759811;181;919390;-63
2022/01/29 12:17:59;;;;;;;18.43;7.70;;;;;;;;;;771079;178;916038;-63
2022/01/29 12:20:23;;;;;;;14.37;5.37;;;;;;;;;;777890;181;812123;-64
2022/01/29 12:22:49;;;;;;;13.93;5.97;;;;;;;;;;769786;180;916474;-64
2022/01/29 12:25:16;;;;;;;20.80;6.50;;;;;;;;;;772061;181;1048656;-62
2022/01/29 12:27:46;;;;;;;18.80;7.80;;;;;;;;;;779718;177;916241;-64
2022/01/29 12:30:12;;;;;;;18.30;7.30;;;;;;;;;;778027;179;920143;-64
2022/01/29 12:32:38;;;;;;;21.97;8.10;;;;;;;;;;773593;177;919825;-64
2022/01/29 12:35:04;;;;;;;30.55;8.13;;;;;;;;;;772149;177;1021576;-62
2022/01/29 12:37:30;;;;;;;22.00;9.67;;;;;;;;;;778582;180;867353;-64
2022/01/29 12:40:01;;;;;;;28.33;8.43;;;;;;;;;;773929;180;889592;-65
2022/01/29 12:42:29;;;;;;;20.73;7.63;;;;;;;;;;775467;180;632621;-64
2022/01/29 12:44:54;;;;;;;19.20;8.70;;;;;;;;;;772537;180;914675;-64
2022/01/29 12:47:26;;;;;;;18.50;11.00;;;;;;;;;;771410;181;914344;-65
2022/01/29 12:49:52;;;;;;;16.43;9.83;;;;;;;;;;769853;178;919407;-64
2022/01/29 12:52:18;;;;;;;17.87;10.07;;;;;;;;;;775136;180;918072;-63
2022/01/29 12:54:49;;;;;;;20.20;7.17;;;;;;;;;;779754;180;647706;-64
2022/01/29 12:57:15;;;;;;;11.43;5.83;;;;;;;;;;778348;179;626940;-64
2022/01/29 12:59:41;;;;;;;17.58;10.32;;;;;;;;;;773205;178;794349;-64
2022/01/29 13:02:07;;;;;;;25.13;8.90;;;;;;;;;;764972;180;637253;-68
2022/01/29 13:04:32;;;;;;;18.83;9.43;;;;;;;;;;779411;180;644951;-64
2022/01/29 13:06:58;;;;;;;16.57;9.50;;;;;;;;;;773809;180;920199;-65
2022/01/29 13:09:24;;;;;;;13.88;8.40;;;;;;;;;;773912;180;917999;-64
2022/01/29 13:11:55;;;;;;;27.40;10.17;;;;;;;;;;777131;178;814273;-64
2022/01/29 13:14:21;;;;;;;27.73;9.70;;;;;;;;;;773590;177;918693;-64
2022/01/29 13:16:47;;;;;;;18.90;10.80;;;;;;;;;;771403;180;1019354;-65
2022/01/29 13:19:12;;;;;;;21.83;10.23;;;;;;;;;;767830;180;914085;-64
2022/01/29 13:21:39;;;;;;;33.00;11.70;;;;;;;;;;765395;180;929360;-64
2022/01/29 13:24:22;;;;;;;24.97;14.47;;;;;;;;;;771937;180;919271;-65
2022/01/29 13:26:46;;;;;;;20.40;10.47;;;;;;;;;;776532;179;919193;-64
2022/01/29 13:29:17;;;;;;;21.80;13.13;;;;;;;;;;771688;180;986572;-65
2022/01/29 13:31:43;;;;;;;23.03;12.37;;;;;;;;;;775540;180;918971;-63
2022/01/29 13:34:08;;;;;;;24.87;14.00;;;;;;;;;;762412;180;923507;-64
2022/01/29 13:36:35;;;;;;;29.77;11.50;;;;;;;;;;768609;180;919348;-64
2022/01/29 13:39:05;;;;;;;28.40;13.37;;;;;;;;;;775034;180;624163;-64
2022/01/29 13:41:26;;;;;;;21.53;13.10;;;;;;;;;;780187;179;618047;-65
2022/01/29 13:43:52;;;;;;;16.30;9.13;;;;;;;;;;772610;180;919135;-65
2022/01/29 13:46:19;;;;;;;26.43;12.90;;;;;;;;;;773370;180;919533;-65
2022/01/29 13:48:44;;;;;;;24.80;15.10;;;;;;;;;;779021;180;630914;-64
2022/01/29 13:51:10;;;;;;;21.80;12.67;;;;;;;;;;773205;180;919431;-65
2022/01/29 13:53:46;;;;;;;30.30;14.37;;;;;;;;;;771712;179;1021572;-66
2022/01/29 13:56:12;;;;;;;26.67;13.97;;;;;;;;;;774139;179;918621;-65
2022/01/29 13:58:44;;;;;;;30.13;15.20;;;;;;;;;;778951;177;925016;-65
2022/01/29 14:01:10;;;;;;;29.63;16.17;;;;;;;;;;762422;180;919422;-65
2022/01/29 14:03:41;;;;;;;27.53;14.57;;;;;;;;;;771407;180;918959;-65
2022/01/29 14:06:29;;;;;;;30.00;15.13;;;;;;;;;;776239;180;628430;-67
2022/01/29 14:08:58;;;;;;;27.63;15.50;;;;;;;;;;765838;181;919302;-66
2022/01/29 14:11:24;;;;;;;27.90;18.10;;;;;;;;;;779071;179;918646;-66
2022/01/29 14:13:50;;;;;;;29.80;15.17;;;;;;;;;;777934;178;919503;-65
2022/01/29 14:16:16;;;;;;;31.30;14.43;;;;;;;;;;770184;180;920001;-66